Geronimo, Oklahoma
Current Conditions -  °F | °C
As of 6:53 AM on Thursday 23 Oct 2014 (Local Time) from KLAW Reporting Station
Clear Clear  
Wind Chill: 61°   Ceiling: Unl
Heat Index: 61°   Visibility: 7mi
Dew Point: 58°   Wind: 5mph
Humidity: 90%   Direction: 130°SE
Pressure: 30.1"   Gusts: NA
Location:  34.48°N, 98.38°W
Report Text: KLAW 231153Z 13004KT 7SM CLR 16/14 A3010 RMK AO2 SLP186 70003 T01610144 10183 20161 51002
Loading
Personal Weather Stations






























Interactive Weather Map
Tropical Storm Tracking
New forecast layout! Learn more

10-Day Weather Forecast

Advertisements
Track Severe Weather on mobile